Time;durP1;ratioP1;P1;durP2;ratioP2;P2;SDS_P1;SDS_P2;PMS_P1;PMS_P2;Temp;Humidity;BMP_temperature;BMP_pressure;BME280_temperature;BME280_humidity;BME280_pressure;Samples;Min_cycle;Max_cycle;Signal;HPM_P1;HPM_P2
2021/01/08 00:00:16;;;;;;;11.97;8.17;;;2.20;99.90;;;;;;5017423;28;20212;-83
2021/01/08 00:02:41;;;;;;;14.50;8.90;;;2.20;99.90;;;;;;5001157;28;20259;-82
2021/01/08 00:05:08;;;;;;;12.30;8.73;;;2.20;99.90;;;;;;5001526;28;20670;-82
2021/01/08 00:07:34;;;;;;;15.93;9.07;;;2.20;99.90;;;;;;5017280;28;20179;-84
2021/01/08 00:10:00;;;;;;;10.17;7.33;;;2.20;99.90;;;;;;5001567;28;20183;-84
2021/01/08 00:12:30;;;;;;;13.40;8.70;;;2.20;99.90;;;;;;5018417;28;20258;-84
2021/01/08 00:14:55;;;;;;;11.27;8.23;;;2.20;99.90;;;;;;5001302;28;20924;-82
2021/01/08 00:17:21;;;;;;;13.47;9.07;;;2.30;99.90;;;;;;5018028;28;20183;-81
2021/01/08 00:19:47;;;;;;;11.50;8.80;;;2.20;99.90;;;;;;5001626;28;20180;-84
2021/01/08 00:22:12;;;;;;;14.47;8.87;;;2.10;99.90;;;;;;5002354;28;20187;-85
2021/01/08 00:24:38;;;;;;;12.33;9.23;;;2.20;99.90;;;;;;5017565;28;20206;-83
2021/01/08 00:27:04;;;;;;;11.60;8.73;;;2.20;99.90;;;;;;5001093;28;20178;-83
2021/01/08 00:29:30;;;;;;;14.70;10.00;;;2.20;99.90;;;;;;5001393;28;20192;-83
2021/01/08 00:31:56;;;;;;;13.93;9.20;;;2.20;99.90;;;;;;5018014;28;20175;-82
2021/01/08 00:34:21;;;;;;;14.27;10.03;;;2.20;99.90;;;;;;5017661;28;20273;-84
2021/01/08 00:36:56;;;;;;;15.00;9.83;;;2.20;99.90;;;;;;5016790;28;20183;-85
2021/01/08 00:39:22;;;;;;;13.30;9.40;;;2.20;99.90;;;;;;5000740;28;20192;-84
2021/01/08 00:41:47;;;;;;;16.37;10.23;;;2.20;99.90;;;;;;5016606;28;20595;-82
2021/01/08 00:44:14;;;;;;;13.80;9.13;;;2.20;99.90;;;;;;5016963;28;20584;-83
2021/01/08 00:46:41;;;;;;;13.37;9.10;;;2.20;99.90;;;;;;5016848;28;20700;-83
2021/01/08 00:49:07;;;;;;;16.20;9.93;;;2.30;99.90;;;;;;5017100;28;20518;-83
2021/01/08 00:51:33;;;;;;;13.93;9.27;;;2.30;99.90;;;;;;5016630;28;20191;-83
2021/01/08 00:53:59;;;;;;;14.47;9.17;;;2.30;99.90;;;;;;5016841;28;20182;-82
2021/01/08 00:56:24;;;;;;;16.03;9.00;;;2.30;99.90;;;;;;5015850;28;20675;-82
2021/01/08 00:58:50;;;;;;;13.70;9.70;;;2.40;99.90;;;;;;5015637;28;20192;-83
2021/01/08 01:01:16;;;;;;;15.10;9.37;;;2.30;99.90;;;;;;5001532;28;20214;-83
2021/01/08 01:03:41;;;;;;;17.23;10.87;;;2.30;99.90;;;;;;4999600;28;20179;-84
2021/01/08 01:06:07;;;;;;;14.90;10.10;;;2.30;99.90;;;;;;5015854;28;20202;-83
2021/01/08 01:08:32;;;;;;;14.70;9.50;;;2.40;99.90;;;;;;5015939;28;20189;-82
2021/01/08 01:10:58;;;;;;;14.67;9.50;;;2.30;99.90;;;;;;4998931;28;20183;-83
2021/01/08 01:13:24;;;;;;;11.93;8.57;;;2.30;99.90;;;;;;4998825;28;20696;-84
2021/01/08 01:15:50;;;;;;;18.73;9.90;;;2.30;99.90;;;;;;4998543;28;20213;-84
2021/01/08 01:18:15;;;;;;;14.77;9.87;;;2.30;99.90;;;;;;4998509;28;20198;-86
2021/01/08 01:20:41;;;;;;;16.77;9.90;;;2.30;99.90;;;;;;5014716;28;20215;-85
2021/01/08 01:23:06;;;;;;;16.07;10.20;;;2.30;99.90;;;;;;5014333;28;20179;-84
2021/01/08 01:25:32;;;;;;;18.70;10.67;;;2.30;99.90;;;;;;5014082;28;20666;-85
2021/01/08 01:27:58;;;;;;;14.23;10.00;;;2.40;99.90;;;;;;5013493;28;20693;-83
2021/01/08 01:30:23;;;;;;;17.33;10.23;;;2.40;99.90;;;;;;4996841;28;20184;-83
2021/01/08 01:32:49;;;;;;;15.13;9.60;;;2.40;99.90;;;;;;5013817;28;20268;-83
2021/01/08 01:35:14;;;;;;;13.80;9.73;;;2.30;99.90;;;;;;4999426;28;20749;-83
2021/01/08 01:37:40;;;;;;;15.07;9.70;;;2.40;99.90;;;;;;5015237;28;20274;-85
2021/01/08 01:40:06;;;;;;;14.93;10.00;;;2.40;99.90;;;;;;5015846;28;20240;-84
2021/01/08 01:42:32;;;;;;;12.80;9.10;;;2.40;99.90;;;;;;5015783;28;20182;-85
2021/01/08 01:44:58;;;;;;;14.25;9.65;;;2.40;99.90;;;;;;5056735;22;20221;-85
2021/01/08 01:47:23;;;;;;;13.80;9.83;;;2.40;99.90;;;;;;5032740;28;20202;-82
2021/01/08 01:49:49;;;;;;;14.37;9.47;;;2.50;99.90;;;;;;5018875;28;20641;-81
2021/01/08 01:52:14;;;;;;;12.70;9.23;;;2.50;99.90;;;;;;5018965;28;20175;-86
2021/01/08 01:54:40;;;;;;;12.57;8.90;;;2.50;99.90;;;;;;5019381;28;20179;-83
2021/01/08 01:57:06;;;;;;;12.00;8.67;;;2.50;99.90;;;;;;5034988;28;20679;-83
2021/01/08 01:59:31;;;;;;;13.03;8.70;;;2.50;99.90;;;;;;5018678;28;20213;-82
2021/01/08 02:01:58;;;;;;;14.60;9.37;;;2.50;99.90;;;;;;5019320;28;20250;-84
2021/01/08 02:04:24;;;;;;;10.77;8.17;;;2.50;99.90;;;;;;5020202;28;20713;-83
2021/01/08 02:06:49;;;;;;;15.43;9.03;;;2.50;99.90;;;;;;5018864;28;20218;-84
2021/01/08 02:09:15;;;;;;;14.70;8.87;;;2.40;99.90;;;;;;5019298;28;20175;-84
2021/01/08 02:11:51;;;;;;;13.53;9.07;;;2.40;99.90;;;;;;5019364;28;20225;-84
2021/01/08 02:14:27;;;;;;;13.07;8.93;;;2.40;99.90;;;;;;5004537;28;20343;-83
2021/01/08 02:16:52;;;;;;;14.73;8.80;;;2.40;99.90;;;;;;5019177;28;20586;-83
2021/01/08 02:19:48;;;;;;;14.27;9.13;;;2.40;99.90;;;;;;5019877;28;20264;-83
2021/01/08 02:22:26;;;;;;;14.67;9.70;;;2.40;99.90;;;;;;5037379;28;20187;-83
2021/01/08 02:25:01;;;;;;;13.00;8.73;;;2.40;99.90;;;;;;5020923;28;20167;-84
2021/01/08 02:27:26;;;;;;;12.93;8.70;;;2.40;99.90;;;;;;5035848;28;20534;-81
2021/01/08 02:29:52;;;;;;;12.77;8.53;;;2.40;99.90;;;;;;5018715;28;20190;-82
2021/01/08 02:32:17;;;;;;;13.37;8.47;;;2.30;99.90;;;;;;5018979;28;20186;-84
2021/01/08 02:34:43;;;;;;;13.03;8.63;;;2.40;99.90;;;;;;5019836;28;20186;-83
2021/01/08 02:37:09;;;;;;;14.17;8.80;;;2.30;99.90;;;;;;5019291;28;20194;-82
2021/01/08 02:39:34;;;;;;;14.40;9.30;;;2.40;99.90;;;;;;5019118;28;20699;-81
2021/01/08 02:42:00;;;;;;;13.57;8.67;;;2.30;99.90;;;;;;5002405;28;20238;-84
2021/01/08 02:44:26;;;;;;;13.13;8.83;;;2.30;99.90;;;;;;5018336;28;20178;-82
2021/01/08 02:46:51;;;;;;;14.00;8.97;;;2.40;99.90;;;;;;5018454;28;20219;-83
2021/01/08 02:49:17;;;;;;;12.13;8.83;;;2.40;99.90;;;;;;5018816;28;20236;-81
2021/01/08 02:51:42;;;;;;;12.60;8.10;;;2.40;99.90;;;;;;5018657;28;20216;-82
2021/01/08 02:54:08;;;;;;;11.23;8.00;;;2.40;99.90;;;;;;5019356;28;20177;-83
2021/01/08 02:56:50;;;;;;;11.30;8.23;;;2.40;99.90;;;;;;5018976;28;20191;-84
2021/01/08 02:59:16;;;;;;;12.20;7.93;;;2.40;99.90;;;;;;5020938;28;20193;-85
2021/01/08 03:01:41;;;;;;;11.27;7.77;;;2.40;99.90;;;;;;5019639;28;20204;-81
2021/01/08 03:04:07;;;;;;;12.17;8.30;;;2.40;99.90;;;;;;5019533;28;20186;-82
2021/01/08 03:06:33;;;;;;;11.47;8.07;;;2.30;99.90;;;;;;5018505;28;20202;-85
2021/01/08 03:09:01;;;;;;;10.90;7.40;;;2.30;99.90;;;;;;5019086;28;20179;-84
2021/01/08 03:11:27;;;;;;;14.07;8.97;;;2.30;99.90;;;;;;5019511;28;20197;-82
2021/01/08 03:13:53;;;;;;;10.77;7.33;;;2.20;99.90;;;;;;5018797;28;20186;-84
2021/01/08 03:16:19;;;;;;;10.20;7.03;;;2.30;99.90;;;;;;5018685;28;20259;-84
2021/01/08 03:18:44;;;;;;;10.67;7.47;;;2.20;99.90;;;;;;5018790;28;20578;-85
2021/01/08 03:21:10;;;;;;;11.37;7.20;;;2.20;99.90;;;;;;5019622;28;20211;-83
2021/01/08 03:23:35;;;;;;;11.53;7.33;;;2.20;99.90;;;;;;5018660;28;20261;-83
2021/01/08 03:26:01;;;;;;;9.57;6.53;;;2.20;99.90;;;;;;5018338;28;20198;-85
2021/01/08 03:28:26;;;;;;;9.70;6.40;;;2.30;99.90;;;;;;5035567;28;20182;-86
2021/01/08 03:30:52;;;;;;;11.40;6.50;;;2.20;99.90;;;;;;5018827;28;20196;-83
2021/01/08 03:33:17;;;;;;;9.43;6.63;;;2.20;99.90;;;;;;5020447;28;20182;-82
2021/01/08 03:35:43;;;;;;;9.17;6.27;;;2.20;99.90;;;;;;5037249;28;20202;-83
2021/01/08 03:38:08;;;;;;;9.50;6.27;;;2.20;99.90;;;;;;5019767;28;20213;-82
2021/01/08 03:40:36;;;;;;;10.33;6.47;;;2.20;99.90;;;;;;5037638;28;20280;-83
2021/01/08 03:43:02;;;;;;;9.90;6.37;;;2.20;99.90;;;;;;5023271;28;20323;-84
2021/01/08 03:45:28;;;;;;;9.87;5.90;;;2.10;99.90;;;;;;5023185;28;20264;-83
2021/01/08 03:47:53;;;;;;;10.30;6.23;;;2.10;99.90;;;;;;5023230;28;20174;-82
2021/01/08 03:50:19;;;;;;;9.33;6.27;;;2.10;99.90;;;;;;5023719;28;20687;-86
2021/01/08 03:52:44;;;;;;;10.43;6.40;;;2.20;99.90;;;;;;5023414;28;20717;-81
2021/01/08 03:55:10;;;;;;;9.97;6.33;;;2.10;99.90;;;;;;5023300;28;20181;-82
2021/01/08 03:57:36;;;;;;;10.23;6.47;;;2.10;99.90;;;;;;5023256;28;20185;-84
2021/01/08 04:00:04;;;;;;;9.97;6.20;;;2.10;99.90;;;;;;5022954;28;20209;-83
2021/01/08 04:02:29;;;;;;;11.00;6.60;;;2.10;99.90;;;;;;5023048;28;20201;-84
2021/01/08 04:04:55;;;;;;;10.50;6.70;;;2.20;99.90;;;;;;5022806;28;20210;-85
2021/01/08 04:07:20;;;;;;;9.03;5.73;;;2.10;99.90;;;;;;5022380;28;20175;-82
2021/01/08 04:09:46;;;;;;;12.43;6.50;;;2.00;99.90;;;;;;5022774;28;20213;-82
2021/01/08 04:12:12;;;;;;;9.13;5.97;;;2.10;99.90;;;;;;5022502;28;20186;-82
2021/01/08 04:14:37;;;;;;;9.30;5.93;;;2.10;99.90;;;;;;5022994;28;20193;-83
2021/01/08 04:17:03;;;;;;;9.73;6.13;;;2.00;99.90;;;;;;5022232;28;20199;-82
2021/01/08 04:19:28;;;;;;;9.33;5.80;;;2.00;99.90;;;;;;5022109;28;20219;-83
2021/01/08 04:21:54;;;;;;;10.43;6.10;;;2.00;99.90;;;;;;5022668;28;20206;-84
2021/01/08 04:24:19;;;;;;;7.37;5.40;;;2.00;99.90;;;;;;5022220;28;20197;-82
2021/01/08 04:26:45;;;;;;;9.73;6.40;;;2.00;99.90;;;;;;5022439;28;20195;-82
2021/01/08 04:29:10;;;;;;;10.40;6.53;;;2.00;99.90;;;;;;5021767;28;20581;-81
2021/01/08 04:31:36;;;;;;;9.20;6.13;;;1.90;99.90;;;;;;5038852;28;20268;-86
2021/01/08 04:34:02;;;;;;;9.07;6.20;;;2.00;99.90;;;;;;5038698;28;20661;-83
2021/01/08 04:36:27;;;;;;;9.33;6.13;;;2.00;99.90;;;;;;5023620;28;20559;-82
2021/01/08 04:38:53;;;;;;;9.07;5.83;;;2.00;99.90;;;;;;5022863;28;20194;-86
2021/01/08 04:41:18;;;;;;;9.10;6.20;;;1.90;99.90;;;;;;5022235;28;20202;-84
2021/01/08 04:43:44;;;;;;;9.70;6.57;;;1.90;99.90;;;;;;5021951;28;20179;-82
2021/01/08 04:46:14;;;;;;;9.47;6.10;;;1.90;99.90;;;;;;5021538;28;20210;-81
2021/01/08 04:48:39;;;;;;;9.47;6.33;;;1.90;99.90;;;;;;5022605;28;20183;-82
2021/01/08 04:51:05;;;;;;;10.30;6.60;;;1.90;99.90;;;;;;5021796;28;20221;-84
2021/01/08 04:53:34;;;;;;;10.13;6.30;;;2.00;99.90;;;;;;5021733;28;20182;-84
2021/01/08 04:56:02;;;;;;;9.37;6.30;;;1.90;99.90;;;;;;5022155;28;20226;-81
2021/01/08 04:58:28;;;;;;;9.43;6.23;;;1.90;99.90;;;;;;5021892;28;20182;-82
2021/01/08 05:00:54;;;;;;;10.43;6.57;;;1.90;99.90;;;;;;5021579;28;20197;-84
2021/01/08 05:03:19;;;;;;;8.93;6.17;;;1.90;99.90;;;;;;5021176;28;20228;-84
2021/01/08 05:05:45;;;;;;;9.00;6.03;;;1.90;99.90;;;;;;5021271;28;20244;-82
2021/01/08 05:08:10;;;;;;;11.13;7.20;;;2.00;99.90;;;;;;5021137;28;20178;-82
2021/01/08 05:10:36;;;;;;;9.10;6.00;;;2.00;99.90;;;;;;5020913;28;20187;-82
2021/01/08 05:13:02;;;;;;;9.53;6.07;;;2.00;99.90;;;;;;5021141;28;20175;-82
2021/01/08 05:15:27;;;;;;;9.20;6.00;;;2.00;99.90;;;;;;5021073;28;20206;-83
2021/01/08 05:17:53;;;;;;;10.47;6.80;;;2.00;99.90;;;;;;5020094;28;20537;-82
2021/01/08 05:20:18;;;;;;;11.10;6.77;;;2.00;99.90;;;;;;5020581;28;20783;-83
2021/01/08 05:22:44;;;;;;;9.33;6.17;;;2.00;99.90;;;;;;5003769;28;20175;-82
2021/01/08 05:25:10;;;;;;;10.97;6.33;;;2.00;99.90;;;;;;5019815;28;20266;-83
2021/01/08 05:27:36;;;;;;;10.57;6.63;;;2.00;99.90;;;;;;5019166;28;20650;-82
2021/01/08 05:30:18;;;;;;;10.93;6.53;;;2.00;99.90;;;;;;5018842;28;20214;-84
2021/01/08 05:32:45;;;;;;;10.83;7.20;;;1.90;99.90;;;;;;5037345;28;20261;-84
2021/01/08 05:35:14;;;;;;;10.77;6.60;;;1.90;99.90;;;;;;5025324;28;20166;-83
2021/01/08 05:37:44;;;;;;;12.87;6.90;;;1.90;99.90;;;;;;5027638;28;20209;-87
2021/01/08 05:40:10;;;;;;;12.03;7.03;;;1.90;99.90;;;;;;5008891;28;20230;-82
2021/01/08 05:42:48;;;;;;;11.53;6.93;;;2.00;99.90;;;;;;5022475;28;20266;-83
2021/01/08 05:45:14;;;;;;;11.40;7.07;;;2.00;99.90;;;;;;5022773;28;20218;-86
2021/01/08 05:47:39;;;;;;;11.47;7.67;;;1.90;99.90;;;;;;5021356;28;20167;-81
2021/01/08 05:50:05;;;;;;;14.33;8.47;;;2.00;99.90;;;;;;5005994;28;20195;-83
2021/01/08 05:52:31;;;;;;;12.30;8.00;;;1.90;99.90;;;;;;5022151;28;20183;-82
2021/01/08 05:54:56;;;;;;;13.20;7.80;;;1.90;99.90;;;;;;5021423;28;20194;-83
2021/01/08 05:57:22;;;;;;;13.67;8.37;;;1.90;99.90;;;;;;5020805;28;20205;-85
2021/01/08 05:59:47;;;;;;;12.70;8.10;;;1.90;99.90;;;;;;5020940;28;20179;-82
2021/01/08 06:02:13;;;;;;;9.90;6.97;;;1.90;99.90;;;;;;5021287;28;20179;-82
2021/01/08 06:04:39;;;;;;;11.60;8.17;;;2.00;99.90;;;;;;5020764;28;20221;-84
2021/01/08 06:07:15;;;;;;;12.53;7.67;;;2.00;99.90;;;;;;5022177;28;20194;-82
2021/01/08 06:09:48;;;;;;;12.67;8.00;;;2.00;99.90;;;;;;5021965;28;20170;-82
2021/01/08 06:12:14;;;;;;;11.73;7.47;;;2.00;99.90;;;;;;5022640;28;20257;-81
2021/01/08 06:14:39;;;;;;;12.60;8.43;;;1.90;99.90;;;;;;5021156;28;20269;-83
2021/01/08 06:17:05;;;;;;;12.07;7.77;;;1.90;99.90;;;;;;5021085;28;20199;-81
2021/01/08 06:19:31;;;;;;;11.13;7.53;;;1.90;99.90;;;;;;5021314;28;20178;-82
2021/01/08 06:21:57;;;;;;;11.60;7.70;;;1.90;99.90;;;;;;5020933;28;20591;-83
2021/01/08 06:24:24;;;;;;;11.77;7.73;;;1.90;99.90;;;;;;5020503;28;20178;-83
2021/01/08 06:26:49;;;;;;;11.43;7.37;;;1.80;99.90;;;;;;5021467;28;20325;-82
2021/01/08 06:29:17;;;;;;;11.23;7.03;;;1.80;99.90;;;;;;5020749;28;20210;-83
2021/01/08 06:31:51;;;;;;;12.60;6.97;;;1.80;99.90;;;;;;5020583;28;20175;-82
2021/01/08 06:34:22;;;;;;;10.03;6.83;;;1.90;99.90;;;;;;5037587;28;20273;-82
2021/01/08 06:37:10;;;;;;;11.20;7.73;;;1.90;99.90;;;;;;5020175;28;20214;-82
2021/01/08 06:39:39;;;;;;;13.50;8.07;;;1.90;99.90;;;;;;5036565;28;20197;-83
2021/01/08 06:42:05;;;;;;;11.43;7.80;;;1.70;99.90;;;;;;5020306;28;20220;-82
2021/01/08 06:44:32;;;;;;;14.53;8.93;;;1.80;99.90;;;;;;5019700;28;20209;-82
2021/01/08 06:46:58;;;;;;;11.37;7.50;;;1.80;99.90;;;;;;5020155;28;20372;-82
2021/01/08 06:49:24;;;;;;;10.70;7.20;;;1.70;99.90;;;;;;5021477;28;20228;-84
2021/01/08 06:51:50;;;;;;;12.17;7.37;;;1.80;99.90;;;;;;5021383;28;20257;-83
2021/01/08 06:54:15;;;;;;;11.80;6.93;;;1.80;99.90;;;;;;5020523;28;20178;-81
2021/01/08 06:56:42;;;;;;;10.97;6.67;;;1.80;99.90;;;;;;5019908;28;20208;-82
2021/01/08 06:59:09;;;;;;;12.00;7.10;;;1.80;99.90;;;;;;5020211;28;20203;-84
2021/01/08 07:01:58;;;;;;;10.50;6.77;;;1.80;99.90;;;;;;5020302;28;20217;-81
2021/01/08 07:04:25;;;;;;;11.13;6.80;;;1.70;99.90;;;;;;5023124;28;20642;-82
2021/01/08 07:06:54;;;;;;;11.40;6.77;;;1.70;99.90;;;;;;5004278;28;20212;-85
2021/01/08 07:09:20;;;;;;;9.80;6.50;;;1.70;99.90;;;;;;5020864;28;20262;-82
2021/01/08 07:11:52;;;;;;;10.13;6.60;;;1.80;99.90;;;;;;5020245;28;20219;-81
2021/01/08 07:14:22;;;;;;;9.57;6.70;;;1.70;99.90;;;;;;5019585;28;20550;-82
2021/01/08 07:16:49;;;;;;;9.50;6.20;;;1.70;99.90;;;;;;5017938;28;20210;-82
2021/01/08 07:19:17;;;;;;;10.33;6.80;;;1.70;99.90;;;;;;5015122;28;20209;-83
2021/01/08 07:21:53;;;;;;;11.33;6.80;;;1.70;99.90;;;;;;5016730;28;20197;-82
2021/01/08 07:24:27;;;;;;;10.80;7.13;;;1.70;99.90;;;;;;5023475;28;20174;-83
2021/01/08 07:26:53;;;;;;;12.07;6.77;;;1.70;99.90;;;;;;5036229;28;20708;-82
2021/01/08 07:29:27;;;;;;;11.90;6.93;;;1.70;99.90;;;;;;5010493;28;20175;-83
2021/01/08 07:31:55;;;;;;;12.00;6.00;;;1.70;99.90;;;;;;5021357;28;20181;-82
2021/01/08 07:34:34;;;;;;;8.67;6.47;;;1.70;99.90;;;;;;5023425;28;20244;-84
2021/01/08 07:37:00;;;;;;;10.30;6.17;;;1.80;99.90;;;;;;5040038;28;20201;-82
2021/01/08 07:39:44;;;;;;;8.87;6.37;;;1.70;99.90;;;;;;5023417;28;20181;-82
2021/01/08 07:42:32;;;;;;;10.60;6.93;;;1.70;99.90;;;;;;5011218;28;20197;-82
2021/01/08 07:44:58;;;;;;;9.77;6.43;;;1.70;99.90;;;;;;5025598;28;20262;-82
2021/01/08 07:47:28;;;;;;;10.30;6.27;;;1.80;99.90;;;;;;4989563;28;20199;-83
2021/01/08 07:50:10;;;;;;;9.40;6.23;;;1.80;99.90;;;;;;4993461;28;20175;-86
2021/01/08 07:52:37;;;;;;;10.33;6.40;;;1.80;99.90;;;;;;5021265;28;20165;-83
2021/01/08 07:55:03;;;;;;;9.00;6.23;;;1.80;99.90;;;;;;5002623;28;20647;-83
2021/01/08 07:57:29;;;;;;;9.47;6.30;;;1.80;99.90;;;;;;5017875;28;20184;-84
2021/01/08 07:59:54;;;;;;;9.07;6.07;;;1.90;99.90;;;;;;5027695;28;20182;-82
2021/01/08 08:02:20;;;;;;;9.17;6.03;;;1.90;99.90;;;;;;5037577;28;20167;-83
2021/01/08 08:04:46;;;;;;;9.43;5.93;;;1.90;99.90;;;;;;5037306;28;20185;-84
2021/01/08 08:07:12;;;;;;;9.27;6.33;;;1.90;99.90;;;;;;5037055;28;20685;-83
2021/01/08 08:09:39;;;;;;;9.23;6.27;;;1.90;99.90;;;;;;5037260;28;20174;-83
2021/01/08 08:12:09;;;;;;;10.07;6.13;;;1.90;99.90;;;;;;5037308;28;20227;-82
2021/01/08 08:14:35;;;;;;;11.73;6.57;;;1.90;99.90;;;;;;5020338;28;20183;-82
2021/01/08 08:17:00;;;;;;;11.27;6.17;;;1.90;99.90;;;;;;5000725;28;20213;-82
2021/01/08 08:19:31;;;;;;;8.37;6.03;;;1.90;99.90;;;;;;5017403;28;20191;-82
2021/01/08 08:21:57;;;;;;;9.50;6.13;;;1.90;99.90;;;;;;5017363;28;20892;-72
2021/01/08 08:24:22;;;;;;;10.70;6.60;;;1.90;99.90;;;;;;5015580;28;20171;-77
2021/01/08 08:26:48;;;;;;;11.97;6.23;;;1.90;99.90;;;;;;5018463;28;20207;-78
2021/01/08 08:29:15;;;;;;;11.33;6.40;;;1.90;99.90;;;;;;5015281;28;20228;-79
2021/01/08 08:31:45;;;;;;;9.23;6.47;;;2.00;99.90;;;;;;5036851;28;20177;-82
2021/01/08 08:34:11;;;;;;;11.87;6.27;;;2.10;99.90;;;;;;5020799;28;20241;-80
2021/01/08 08:36:37;;;;;;;8.50;6.10;;;2.00;99.90;;;;;;5021385;28;20206;-82
2021/01/08 08:39:04;;;;;;;8.27;5.87;;;2.00;99.90;;;;;;5019185;28;20192;-81
2021/01/08 08:41:30;;;;;;;8.47;6.00;;;2.00;99.90;;;;;;5030713;28;20830;-84
2021/01/08 08:44:12;;;;;;;8.77;6.10;;;2.00;99.90;;;;;;5005554;28;20187;-76
2021/01/08 08:46:40;;;;;;;9.53;6.80;;;1.90;99.90;;;;;;5016709;28;20211;-79
2021/01/08 08:49:07;;;;;;;9.20;6.27;;;1.90;99.90;;;;;;5033023;28;20182;-81
2021/01/08 08:51:32;;;;;;;11.70;7.20;;;1.90;99.90;;;;;;5024362;28;20258;-83
2021/01/08 08:53:58;;;;;;;11.50;6.87;;;1.90;99.90;;;;;;5013936;28;20213;-79
2021/01/08 08:56:25;;;;;;;10.70;6.67;;;2.00;99.90;;;;;;5014650;28;20202;-84
2021/01/08 08:58:50;;;;;;;11.03;7.90;;;2.10;99.90;;;;;;4999966;28;20654;-80
2021/01/08 09:01:16;;;;;;;9.17;7.07;;;2.10;99.90;;;;;;5015219;28;20219;-80
2021/01/08 09:03:41;;;;;;;10.40;7.83;;;2.10;99.90;;;;;;4998899;28;20184;-81
2021/01/08 09:06:10;;;;;;;11.23;7.43;;;2.10;99.90;;;;;;5015744;28;20219;-80
2021/01/08 09:08:36;;;;;;;10.10;7.17;;;2.10;99.90;;;;;;5017725;28;20190;-81
2021/01/08 09:12:03;;;;;;;12.83;7.60;;;2.10;99.90;;;;;;5000849;28;20255;-82
2021/01/08 09:14:29;;;;;;;13.47;8.07;;;2.10;99.90;;;;;;5006326;28;20307;-79
2021/01/08 09:16:54;;;;;;;12.33;8.27;;;2.10;99.90;;;;;;4997013;28;20203;-81
2021/01/08 09:19:46;;;;;;;13.77;7.90;;;2.10;99.90;;;;;;5007618;28;20198;-79
2021/01/08 09:22:32;;;;;;;12.77;7.93;;;2.20;99.90;;;;;;5016095;28;20265;-78
2021/01/08 09:24:58;;;;;;;10.47;6.70;;;2.20;99.90;;;;;;5017498;28;20579;-78
2021/01/08 09:27:24;;;;;;;10.13;6.90;;;2.20;99.90;;;;;;5027229;28;20187;-78
2021/01/08 09:29:50;;;;;;;12.30;7.97;;;2.30;99.90;;;;;;5018907;28;20182;-78
2021/01/08 09:32:30;;;;;;;8.70;6.30;;;2.10;99.90;;;;;;5015329;28;20241;-80
2021/01/08 09:34:59;;;;;;;10.77;6.97;;;2.20;99.90;;;;;;5010444;28;20190;-78
2021/01/08 09:37:24;;;;;;;8.30;6.40;;;2.20;99.90;;;;;;5022088;28;20182;-81
2021/01/08 09:39:50;;;;;;;9.80;6.40;;;2.20;99.90;;;;;;5019447;28;20193;-80
2021/01/08 09:42:15;;;;;;;9.43;6.80;;;2.20;99.90;;;;;;5023913;28;20213;-81
2021/01/08 09:44:41;;;;;;;11.17;6.63;;;2.20;99.90;;;;;;5019462;28;20194;-81
2021/01/08 09:47:13;;;;;;;9.17;6.40;;;2.20;99.90;;;;;;5015777;28;20213;-82
2021/01/08 09:49:42;;;;;;;8.77;6.07;;;2.30;99.90;;;;;;5021027;28;20191;-79
2021/01/08 09:52:09;;;;;;;8.30;6.23;;;2.30;99.90;;;;;;5015366;28;20193;-79
2021/01/08 09:54:47;;;;;;;11.27;6.60;;;2.30;99.90;;;;;;5014823;28;20181;-81
2021/01/08 09:57:34;;;;;;;9.53;6.60;;;2.40;99.90;;;;;;5018934;28;20558;-80
2021/01/08 10:00:04;;;;;;;9.40;6.00;;;2.40;99.90;;;;;;5021165;28;20182;-79
2021/01/08 10:02:39;;;;;;;9.67;6.97;;;2.40;99.90;;;;;;5020675;28;20193;-79
2021/01/08 10:05:06;;;;;;;10.70;7.63;;;2.40;99.90;;;;;;5035301;28;20257;-81
2021/01/08 10:07:42;;;;;;;9.70;6.63;;;2.50;99.90;;;;;;5017203;28;20193;-79
2021/01/08 10:10:20;;;;;;;10.30;7.10;;;2.50;99.90;;;;;;5020096;28;20188;-81
2021/01/08 10:12:49;;;;;;;10.33;7.07;;;2.50;99.90;;;;;;5031647;28;20244;-79
2021/01/08 10:15:15;;;;;;;10.27;7.67;;;2.50;99.90;;;;;;4996525;28;20256;-81
2021/01/08 10:17:50;;;;;;;9.90;6.70;;;2.60;99.90;;;;;;4989217;28;20208;-82
2021/01/08 10:20:18;;;;;;;8.40;5.83;;;2.70;99.90;;;;;;4994663;28;20210;-84
2021/01/08 10:22:46;;;;;;;9.50;6.70;;;2.70;99.90;;;;;;5005841;28;20552;-80
2021/01/08 10:25:28;;;;;;;12.37;7.87;;;2.60;99.90;;;;;;5050301;28;20258;-80
2021/01/08 10:28:04;;;;;;;10.43;6.93;;;2.60;99.90;;;;;;5032179;28;20661;-78
2021/01/08 10:30:30;;;;;;;10.43;7.47;;;2.60;99.90;;;;;;5033830;28;20555;-77
2021/01/08 10:32:55;;;;;;;11.30;7.50;;;2.60;99.90;;;;;;5033928;28;20223;-84
2021/01/08 10:35:21;;;;;;;11.23;7.57;;;2.70;99.90;;;;;;5013601;28;20589;-83
2021/01/08 10:37:46;;;;;;;10.60;6.77;;;2.80;99.90;;;;;;5015114;28;20171;-83
2021/01/08 10:40:12;;;;;;;10.17;6.80;;;2.90;99.90;;;;;;5011804;28;20788;-80
2021/01/08 10:42:38;;;;;;;11.53;7.57;;;2.90;99.90;;;;;;5021920;28;20255;-82
2021/01/08 10:45:04;;;;;;;9.67;7.10;;;2.90;99.90;;;;;;5012660;28;20254;-82
2021/01/08 10:47:30;;;;;;;10.67;7.40;;;2.90;99.90;;;;;;5032239;28;20258;-83
2021/01/08 10:49:55;;;;;;;10.70;7.03;;;2.90;99.90;;;;;;5007988;28;20653;-84
2021/01/08 10:52:21;;;;;;;10.30;7.50;;;2.80;99.90;;;;;;5015114;28;20183;-85
2021/01/08 10:54:47;;;;;;;10.20;6.77;;;2.80;99.90;;;;;;4997257;28;20243;-84
2021/01/08 10:57:13;;;;;;;10.90;7.47;;;2.80;99.90;;;;;;4999257;28;20698;-84
2021/01/08 10:59:38;;;;;;;10.60;6.90;;;2.80;99.90;;;;;;5011030;28;20182;-85
2021/01/08 11:02:04;;;;;;;11.20;7.80;;;2.80;99.90;;;;;;5015746;28;20685;-86
2021/01/08 11:04:29;;;;;;;9.73;7.00;;;2.80;99.90;;;;;;5028388;28;20201;-87
2021/01/08 11:06:56;;;;;;;9.90;7.27;;;2.80;99.90;;;;;;5025633;28;20293;-85
2021/01/08 11:09:22;;;;;;;10.90;7.13;;;2.80;99.90;;;;;;5008115;28;20171;-86
2021/01/08 11:11:47;;;;;;;8.37;6.47;;;2.80;99.90;;;;;;5005712;28;20202;-85
2021/01/08 11:14:13;;;;;;;9.37;6.67;;;2.80;99.90;;;;;;5030446;28;20183;-85
2021/01/08 11:16:38;;;;;;;8.40;5.97;;;2.70;99.90;;;;;;5015268;28;20206;-83
2021/01/08 11:19:04;;;;;;;8.77;6.33;;;2.70;99.90;;;;;;5024852;28;20239;-84
2021/01/08 11:21:29;;;;;;;10.47;6.97;;;2.60;99.90;;;;;;5022936;28;20233;-83
2021/01/08 11:23:55;;;;;;;9.83;6.47;;;2.60;99.90;;;;;;5011549;28;20182;-82
2021/01/08 11:26:27;;;;;;;8.63;6.13;;;2.60;99.90;;;;;;5013320;28;21028;-85
2021/01/08 11:28:53;;;;;;;8.20;5.70;;;2.50;99.90;;;;;;5039598;28;20179;-85
2021/01/08 11:31:19;;;;;;;8.10;5.87;;;2.50;99.90;;;;;;5028042;28;20206;-82
2021/01/08 11:33:47;;;;;;;7.93;5.83;;;2.50;99.90;;;;;;5001896;28;20631;-85
2021/01/08 11:36:16;;;;;;;10.30;6.53;;;2.50;99.90;;;;;;5008367;28;20365;-83
2021/01/08 11:38:42;;;;;;;9.40;5.83;;;2.50;99.90;;;;;;5005745;28;20189;-82
2021/01/08 11:41:07;;;;;;;9.20;6.47;;;2.50;99.90;;;;;;4996669;28;20581;-80
2021/01/08 11:43:33;;;;;;;7.67;5.40;;;2.40;99.90;;;;;;5032084;28;20554;-80
2021/01/08 11:45:59;;;;;;;7.63;5.40;;;2.40;99.90;;;;;;5016540;28;20242;-79
2021/01/08 11:48:24;;;;;;;9.13;6.13;;;2.40;99.90;;;;;;5032011;28;20184;-77
2021/01/08 11:50:50;;;;;;;7.47;5.03;;;2.50;99.90;;;;;;5031039;28;20204;-84
2021/01/08 11:53:15;;;;;;;7.60;5.03;;;2.50;99.90;;;;;;4997765;28;20187;-84
2021/01/08 11:55:41;;;;;;;7.90;5.40;;;2.60;99.90;;;;;;4996609;28;20605;-85
2021/01/08 11:58:06;;;;;;;7.57;5.30;;;2.60;99.90;;;;;;4997633;28;20574;-85
2021/01/08 12:00:32;;;;;;;7.47;5.27;;;2.60;99.90;;;;;;4998068;28;20624;-85
2021/01/08 12:02:57;;;;;;;6.57;4.87;;;2.70;99.90;;;;;;4983830;28;20667;-84
2021/01/08 12:05:23;;;;;;;7.00;5.23;;;2.70;99.90;;;;;;5005117;28;20206;-82
2021/01/08 12:07:49;;;;;;;7.53;5.13;;;2.70;99.90;;;;;;5020781;28;20558;-80
2021/01/08 12:10:14;;;;;;;7.67;5.30;;;2.70;99.90;;;;;;5017858;28;20182;-88
2021/01/08 12:12:40;;;;;;;7.20;4.93;;;2.60;99.90;;;;;;4998556;28;20594;-89
2021/01/08 12:15:06;;;;;;;5.07;4.30;;;2.60;99.90;;;;;;4983182;28;20214;-87
2021/01/08 12:17:31;;;;;;;6.73;4.60;;;2.60;99.90;;;;;;4983857;28;20646;-85
2021/01/08 12:19:57;;;;;;;5.57;4.17;;;2.60;99.90;;;;;;5000882;28;20422;-88
2021/01/08 12:22:22;;;;;;;7.30;4.43;;;2.60;99.90;;;;;;5001449;28;20222;-86
2021/01/08 12:24:48;;;;;;;6.50;4.27;;;2.50;99.90;;;;;;5001595;28;20233;-86
2021/01/08 12:27:16;;;;;;;5.83;4.23;;;2.50;99.90;;;;;;5001900;28;20225;-86
2021/01/08 12:29:41;;;;;;;6.73;4.17;;;2.40;99.90;;;;;;5001069;28;20638;-87
2021/01/08 12:32:07;;;;;;;5.00;3.73;;;2.40;99.90;;;;;;5002247;28;20207;-83
2021/01/08 12:34:33;;;;;;;6.17;4.37;;;2.40;99.90;;;;;;5004186;28;20175;-84
2021/01/08 12:36:59;;;;;;;5.53;4.37;;;2.50;99.90;;;;;;5003424;28;20246;-87
2021/01/08 12:39:24;;;;;;;6.47;4.80;;;2.50;99.90;;;;;;5003585;28;20183;-84
2021/01/08 12:41:50;;;;;;;7.60;4.93;;;2.50;99.90;;;;;;5002800;28;20203;-86
2021/01/08 12:44:15;;;;;;;5.77;4.50;;;2.60;99.90;;;;;;5003076;28;20281;-85
2021/01/08 12:46:41;;;;;;;7.00;5.00;;;2.60;99.90;;;;;;5001676;28;20219;-79
2021/01/08 12:49:07;;;;;;;6.37;4.77;;;2.50;99.90;;;;;;4983999;28;20184;-81
2021/01/08 12:51:33;;;;;;;6.10;4.53;;;2.60;99.90;;;;;;5015094;28;20553;-80